sensor_id;sensor_type;location;lat;lon;timestamp;temperature;humidity
64650;HTU21D;51061;45.258;38.112;2022-09-30T00:00:19;17.65;65.80
64650;HTU21D;51061;45.258;38.112;2022-09-30T00:02:45;17.67;66.04
64650;HTU21D;51061;45.258;38.112;2022-09-30T00:05:10;17.66;66.09
64650;HTU21D;51061;45.258;38.112;2022-09-30T00:07:36;17.65;66.57
64650;HTU21D;51061;45.258;38.112;2022-09-30T00:10:03;17.64;66.87
64650;HTU21D;51061;45.258;38.112;2022-09-30T00:12:29;17.61;67.23
64650;HTU21D;51061;45.258;38.112;2022-09-30T00:14:55;17.61;67.69
64650;HTU21D;51061;45.258;38.112;2022-09-30T00:17:21;17.60;67.74
64650;HTU21D;51061;45.258;38.112;2022-09-30T00:19:47;17.63;70.57
64650;HTU21D;51061;45.258;38.112;2022-09-30T00:22:13;17.60;69.24
64650;HTU21D;51061;45.258;38.112;2022-09-30T00:24:39;17.58;68.98
64650;HTU21D;51061;45.258;38.112;2022-09-30T00:27:05;17.54;68.81
64650;HTU21D;51061;45.258;38.112;2022-09-30T00:29:31;17.53;68.68
64650;HTU21D;51061;45.258;38.112;2022-09-30T00:31:57;17.54;68.58
64650;HTU21D;51061;45.258;38.112;2022-09-30T00:34:23;17.52;68.93
64650;HTU21D;51061;45.258;38.112;2022-09-30T00:36:50;17.51;68.84
64650;HTU21D;51061;45.258;38.112;2022-09-30T00:39:17;17.50;68.75
64650;HTU21D;51061;45.258;38.112;2022-09-30T00:41:44;17.50;68.68
64650;HTU21D;51061;45.258;38.112;2022-09-30T00:46:55;17.45;69.06
64650;HTU21D;51061;45.258;38.112;2022-09-30T00:49:22;17.43;69.45
64650;HTU21D;51061;45.258;38.112;2022-09-30T00:51:51;17.40;69.52
64650;HTU21D;51061;45.258;38.112;2022-09-30T00:54:22;17.39;70.09
64650;HTU21D;51061;45.258;38.112;2022-09-30T00:56:54;17.35;69.96
64650;HTU21D;51061;45.258;38.112;2022-09-30T00:59:22;17.31;70.03
64650;HTU21D;51061;45.258;38.112;2022-09-30T01:01:50;17.29;69.91
64650;HTU21D;51061;45.258;38.112;2022-09-30T01:04:17;17.25;69.80
64650;HTU21D;51061;45.258;38.112;2022-09-30T01:06:45;17.23;69.71
64650;HTU21D;51061;45.258;38.112;2022-09-30T01:09:11;17.20;69.73
64650;HTU21D;51061;45.258;38.112;2022-09-30T01:11:38;17.19;69.72
64650;HTU21D;51061;45.258;38.112;2022-09-30T01:14:06;17.17;69.68
64650;HTU21D;51061;45.258;38.112;2022-09-30T01:21:43;17.07;69.98
64650;HTU21D;51061;45.258;38.112;2022-09-30T01:24:23;17.02;70.42
64650;HTU21D;51061;45.258;38.112;2022-09-30T01:29:27;16.93;70.42
64650;HTU21D;51061;45.258;38.112;2022-09-30T01:32:04;16.91;70.41
64650;HTU21D;51061;45.258;38.112;2022-09-30T01:34:52;16.90;70.26
64650;HTU21D;51061;45.258;38.112;2022-09-30T01:37:28;16.92;70.22
64650;HTU21D;51061;45.258;38.112;2022-09-30T01:40:19;16.93;70.43
64650;HTU21D;51061;45.258;38.112;2022-09-30T01:45:36;16.96;71.63
64650;HTU21D;51061;45.258;38.112;2022-09-30T01:51:18;16.94;71.39
64650;HTU21D;51061;45.258;38.112;2022-09-30T01:55:52;16.94;71.33
64650;HTU21D;51061;45.258;38.112;2022-09-30T02:01:03;16.91;71.53
64650;HTU21D;51061;45.258;38.112;2022-09-30T02:03:36;16.90;71.47
64650;HTU21D;51061;45.258;38.112;2022-09-30T02:11:04;16.87;71.61
64650;HTU21D;51061;45.258;38.112;2022-09-30T02:13:37;16.87;71.91
64650;HTU21D;51061;45.258;38.112;2022-09-30T02:16:05;16.85;72.03
64650;HTU21D;51061;45.258;38.112;2022-09-30T02:18:38;16.82;72.07
64650;HTU21D;51061;45.258;38.112;2022-09-30T02:21:06;16.82;72.64
64650;HTU21D;51061;45.258;38.112;2022-09-30T02:23:34;16.81;73.03
64650;HTU21D;51061;45.258;38.112;2022-09-30T02:26:05;16.79;72.74
64650;HTU21D;51061;45.258;38.112;2022-09-30T02:28:36;16.78;72.88
64650;HTU21D;51061;45.258;38.112;2022-09-30T02:31:04;16.77;72.77
64650;HTU21D;51061;45.258;38.112;2022-09-30T02:36:25;16.73;72.64
64650;HTU21D;51061;45.258;38.112;2022-09-30T02:39:00;16.70;72.64
64650;HTU21D;51061;45.258;38.112;2022-09-30T02:41:27;16.67;72.46
64650;HTU21D;51061;45.258;38.112;2022-09-30T02:43:54;16.65;72.36
64650;HTU21D;51061;45.258;38.112;2022-09-30T02:56:48;16.59;72.13
64650;HTU21D;51061;45.258;38.112;2022-09-30T02:59:03;16.55;72.02
64650;HTU21D;51061;45.258;38.112;2022-09-30T03:01:29;16.48;72.01
64650;HTU21D;51061;45.258;38.112;2022-09-30T03:03:59;16.43;72.09
64650;HTU21D;51061;45.258;38.112;2022-09-30T03:06:27;16.36;72.12
64650;HTU21D;51061;45.258;38.112;2022-09-30T03:08:53;16.33;72.11
64650;HTU21D;51061;45.258;38.112;2022-09-30T03:11:20;16.31;72.14
64650;HTU21D;51061;45.258;38.112;2022-09-30T03:29:42;16.24;71.83
64650;HTU21D;51061;45.258;38.112;2022-09-30T03:34:19;16.29;71.80
64650;HTU21D;51061;45.258;38.112;2022-09-30T03:39:21;16.32;71.61
64650;HTU21D;51061;45.258;38.112;2022-09-30T03:41:54;16.32;71.61
64650;HTU21D;51061;45.258;38.112;2022-09-30T03:44:24;16.32;71.61
64650;HTU21D;51061;45.258;38.112;2022-09-30T03:46:53;16.35;71.55
64650;HTU21D;51061;45.258;38.112;2022-09-30T03:49:22;16.41;71.54
64650;HTU21D;51061;45.258;38.112;2022-09-30T03:51:49;16.43;71.47
64650;HTU21D;51061;45.258;38.112;2022-09-30T03:54:15;16.49;71.42
64650;HTU21D;51061;45.258;38.112;2022-09-30T03:56:41;16.51;71.34
64650;HTU21D;51061;45.258;38.112;2022-09-30T03:59:11;16.56;71.24
64650;HTU21D;51061;45.258;38.112;2022-09-30T04:01:37;16.59;71.23
64650;HTU21D;51061;45.258;38.112;2022-09-30T04:04:04;16.64;71.25
64650;HTU21D;51061;45.258;38.112;2022-09-30T04:06:30;16.67;71.50
64650;HTU21D;51061;45.258;38.112;2022-09-30T04:08:56;16.71;71.54
64650;HTU21D;51061;45.258;38.112;2022-09-30T04:11:22;16.75;71.42
64650;HTU21D;51061;45.258;38.112;2022-09-30T04:13:47;16.80;71.41
64650;HTU21D;51061;45.258;38.112;2022-09-30T04:16:13;16.86;71.38
64650;HTU21D;51061;45.258;38.112;2022-09-30T04:18:39;16.91;71.24
64650;HTU21D;51061;45.258;38.112;2022-09-30T04:21:06;16.96;71.38
64650;HTU21D;51061;45.258;38.112;2022-09-30T04:23:35;17.03;71.32
64650;HTU21D;51061;45.258;38.112;2022-09-30T04:26:02;17.08;71.21
64650;HTU21D;51061;45.258;38.112;2022-09-30T04:28:28;17.15;71.11
64650;HTU21D;51061;45.258;38.112;2022-09-30T04:30:53;17.21;71.00
64650;HTU21D;51061;45.258;38.112;2022-09-30T04:33:19;17.29;71.22
64650;HTU21D;51061;45.258;38.112;2022-09-30T04:35:45;17.35;71.02
64650;HTU21D;51061;45.258;38.112;2022-09-30T04:38:11;17.41;70.92
64650;HTU21D;51061;45.258;38.112;2022-09-30T04:40:37;17.50;70.82
64650;HTU21D;51061;45.258;38.112;2022-09-30T04:43:03;17.54;70.73
64650;HTU21D;51061;45.258;38.112;2022-09-30T04:45:29;17.63;70.63
64650;HTU21D;51061;45.258;38.112;2022-09-30T04:47:55;17.70;70.61
64650;HTU21D;51061;45.258;38.112;2022-09-30T04:50:21;17.77;70.48
64650;HTU21D;51061;45.258;38.112;2022-09-30T04:52:49;17.82;70.37
64650;HTU21D;51061;45.258;38.112;2022-09-30T04:55:14;17.88;70.48
64650;HTU21D;51061;45.258;38.112;2022-09-30T04:57:43;17.90;70.42
64650;HTU21D;51061;45.258;38.112;2022-09-30T05:00:10;17.94;70.68
64650;HTU21D;51061;45.258;38.112;2022-09-30T05:02:35;17.98;70.63
64650;HTU21D;51061;45.258;38.112;2022-09-30T05:05:02;18.05;70.72
64650;HTU21D;51061;45.258;38.112;2022-09-30T05:07:29;18.12;71.23
64650;HTU21D;51061;45.258;38.112;2022-09-30T05:09:55;18.19;72.39
64650;HTU21D;51061;45.258;38.112;2022-09-30T05:12:21;18.25;71.70
64650;HTU21D;51061;45.258;38.112;2022-09-30T05:14:48;18.30;72.32
64650;HTU21D;51061;45.258;38.112;2022-09-30T05:17:13;18.35;71.87
64650;HTU21D;51061;45.258;38.112;2022-09-30T05:19:39;18.43;72.52
64650;HTU21D;51061;45.258;38.112;2022-09-30T05:22:05;18.52;71.86
64650;HTU21D;51061;45.258;38.112;2022-09-30T05:24:31;18.62;72.15
64650;HTU21D;51061;45.258;38.112;2022-09-30T05:26:57;18.71;71.59
64650;HTU21D;51061;45.258;38.112;2022-09-30T05:29:23;18.84;71.32
64650;HTU21D;51061;45.258;38.112;2022-09-30T05:31:48;18.97;71.07
64650;HTU21D;51061;45.258;38.112;2022-09-30T05:34:14;19.12;70.86
64650;HTU21D;51061;45.258;38.112;2022-09-30T05:36:42;19.25;70.63
64650;HTU21D;51061;45.258;38.112;2022-09-30T05:39:09;19.35;70.68
64650;HTU21D;51061;45.258;38.112;2022-09-30T05:41:34;19.43;70.84
64650;HTU21D;51061;45.258;38.112;2022-09-30T05:44:00;19.51;70.34
64650;HTU21D;51061;45.258;38.112;2022-09-30T05:46:27;19.61;70.20
64650;HTU21D;51061;45.258;38.112;2022-09-30T05:48:53;19.71;70.14
64650;HTU21D;51061;45.258;38.112;2022-09-30T05:51:19;19.82;70.23
64650;HTU21D;51061;45.258;38.112;2022-09-30T05:53:45;19.87;69.74
64650;HTU21D;51061;45.258;38.112;2022-09-30T05:56:11;19.95;69.83
64650;HTU21D;51061;45.258;38.112;2022-09-30T05:58:37;20.01;70.16
64650;HTU21D;51061;45.258;38.112;2022-09-30T06:01:09;20.03;69.81
64650;HTU21D;51061;45.258;38.112;2022-09-30T06:03:35;20.11;69.62
64650;HTU21D;51061;45.258;38.112;2022-09-30T06:06:03;20.20;69.46
64650;HTU21D;51061;45.258;38.112;2022-09-30T06:08:29;20.33;69.22
64650;HTU21D;51061;45.258;38.112;2022-09-30T06:10:55;20.42;69.08
64650;HTU21D;51061;45.258;38.112;2022-09-30T06:13:23;20.54;69.03
64650;HTU21D;51061;45.258;38.112;2022-09-30T06:15:56;20.64;68.75
64650;HTU21D;51061;45.258;38.112;2022-09-30T06:18:23;20.76;68.61
64650;HTU21D;51061;45.258;38.112;2022-09-30T06:20:50;20.86;68.45
64650;HTU21D;51061;45.258;38.112;2022-09-30T06:23:15;20.95;68.25
64650;HTU21D;51061;45.258;38.112;2022-09-30T06:25:41;21.01;68.08
64650;HTU21D;51061;45.258;38.112;2022-09-30T06:28:08;21.10;67.94
64650;HTU21D;51061;45.258;38.112;2022-09-30T06:30:33;21.20;67.79
64650;HTU21D;51061;45.258;38.112;2022-09-30T06:32:59;21.30;67.66
64650;HTU21D;51061;45.258;38.112;2022-09-30T06:35:25;21.42;67.49
64650;HTU21D;51061;45.258;38.112;2022-09-30T06:37:53;21.54;67.30
64650;HTU21D;51061;45.258;38.112;2022-09-30T06:40:19;21.68;67.13
64650;HTU21D;51061;45.258;38.112;2022-09-30T06:42:48;21.79;66.91
64650;HTU21D;51061;45.258;38.112;2022-09-30T06:45:14;21.89;66.71
64650;HTU21D;51061;45.258;38.112;2022-09-30T06:47:40;21.99;66.48
64650;HTU21D;51061;45.258;38.112;2022-09-30T06:50:07;22.06;66.42
64650;HTU21D;51061;45.258;38.112;2022-09-30T06:52:32;22.18;66.24
64650;HTU21D;51061;45.258;38.112;2022-09-30T06:54:58;22.29;65.89
64650;HTU21D;51061;45.258;38.112;2022-09-30T06:57:24;22.38;65.63
64650;HTU21D;51061;45.258;38.112;2022-09-30T06:59:52;22.46;65.45
64650;HTU21D;51061;45.258;38.112;2022-09-30T07:02:19;22.53;64.80
64650;HTU21D;51061;45.258;38.112;2022-09-30T07:04:45;22.61;64.86
64650;HTU21D;51061;45.258;38.112;2022-09-30T07:07:11;22.71;64.40
64650;HTU21D;51061;45.258;38.112;2022-09-30T07:09:37;22.79;64.24
64650;HTU21D;51061;45.258;38.112;2022-09-30T07:12:03;22.85;64.20
64650;HTU21D;51061;45.258;38.112;2022-09-30T07:14:30;22.96;63.83
64650;HTU21D;51061;45.258;38.112;2022-09-30T07:16:56;23.06;63.40
64650;HTU21D;51061;45.258;38.112;2022-09-30T07:19:22;23.83;62.30
64650;HTU21D;51061;45.258;38.112;2022-09-30T07:21:49;24.90;58.82
64650;HTU21D;51061;45.258;38.112;2022-09-30T07:24:15;25.74;56.71
64650;HTU21D;51061;45.258;38.112;2022-09-30T07:26:41;26.66;54.96
64650;HTU21D;51061;45.258;38.112;2022-09-30T07:29:10;27.36;53.38
64650;HTU21D;51061;45.258;38.112;2022-09-30T07:31:35;27.87;52.34
64650;HTU21D;51061;45.258;38.112;2022-09-30T07:34:02;28.18;51.07
64650;HTU21D;51061;45.258;38.112;2022-09-30T07:36:31;28.41;49.62
64650;HTU21D;51061;45.258;38.112;2022-09-30T07:38:57;28.84;50.24
64650;HTU21D;51061;45.258;38.112;2022-09-30T07:41:23;29.39;49.42
64650;HTU21D;51061;45.258;38.112;2022-09-30T07:43:52;29.76;48.53
64650;HTU21D;51061;45.258;38.112;2022-09-30T07:46:20;30.33;47.60
64650;HTU21D;51061;45.258;38.112;2022-09-30T07:48:49;31.29;46.01
64650;HTU21D;51061;45.258;38.112;2022-09-30T07:51:17;31.88;44.90
64650;HTU21D;51061;45.258;38.112;2022-09-30T07:53:45;32.48;44.27
64650;HTU21D;51061;45.258;38.112;2022-09-30T07:56:12;32.91;44.11
64650;HTU21D;51061;45.258;38.112;2022-09-30T07:58:38;33.28;43.36
64650;HTU21D;51061;45.258;38.112;2022-09-30T08:01:04;33.32;42.94
64650;HTU21D;51061;45.258;38.112;2022-09-30T08:03:34;32.87;43.95
64650;HTU21D;51061;45.258;38.112;2022-09-30T08:06:11;32.94;42.64
64650;HTU21D;51061;45.258;38.112;2022-09-30T08:08:37;33.60;42.23
64650;HTU21D;51061;45.258;38.112;2022-09-30T08:11:04;34.52;41.23
64650;HTU21D;51061;45.258;38.112;2022-09-30T08:13:30;35.30;40.44
64650;HTU21D;51061;45.258;38.112;2022-09-30T08:15:56;35.90;39.82
64650;HTU21D;51061;45.258;38.112;2022-09-30T08:18:21;36.14;39.91
64650;HTU21D;51061;45.258;38.112;2022-09-30T08:20:47;36.18;39.80
64650;HTU21D;51061;45.258;38.112;2022-09-30T08:23:13;36.28;39.91
64650;HTU21D;51061;45.258;38.112;2022-09-30T08:25:39;35.83;40.65
64650;HTU21D;51061;45.258;38.112;2022-09-30T08:28:05;35.15;40.96
64650;HTU21D;51061;45.258;38.112;2022-09-30T08:30:33;35.06;41.80
64650;HTU21D;51061;45.258;38.112;2022-09-30T08:32:59;35.66;39.75
64650;HTU21D;51061;45.258;38.112;2022-09-30T08:35:25;35.24;39.25
64650;HTU21D;51061;45.258;38.112;2022-09-30T08:37:51;35.20;40.10
64650;HTU21D;51061;45.258;38.112;2022-09-30T08:40:18;35.83;39.19
64650;HTU21D;51061;45.258;38.112;2022-09-30T08:48:40;31.96;44.68
64650;HTU21D;51061;45.258;38.112;2022-09-30T08:53:26;34.59;39.88
64650;HTU21D;51061;45.258;38.112;2022-09-30T08:55:54;35.81;38.06
64650;HTU21D;51061;45.258;38.112;2022-09-30T09:00:48;36.24;36.86
64650;HTU21D;51061;45.258;38.112;2022-09-30T09:03:14;36.36;37.10
64650;HTU21D;51061;45.258;38.112;2022-09-30T09:05:58;36.44;36.80
64650;HTU21D;51061;45.258;38.112;2022-09-30T09:16:18;36.56;36.07
64650;HTU21D;51061;45.258;38.112;2022-09-30T09:21:28;36.66;35.32
64650;HTU21D;51061;45.258;38.112;2022-09-30T09:23:57;36.69;34.73
64650;HTU21D;51061;45.258;38.112;2022-09-30T09:26:25;36.37;34.63
64650;HTU21D;51061;45.258;38.112;2022-09-30T09:31:23;36.25;34.33
64650;HTU21D;51061;45.258;38.112;2022-09-30T09:33:49;36.72;34.09
64650;HTU21D;51061;45.258;38.112;2022-09-30T09:36:32;37.62;32.41
64650;HTU21D;51061;45.258;38.112;2022-09-30T09:47:16;36.82;32.08
64650;HTU21D;51061;45.258;38.112;2022-09-30T09:52:25;37.74;32.23
64650;HTU21D;51061;45.258;38.112;2022-09-30T09:54:53;39.13;30.63
64650;HTU21D;51061;45.258;38.112;2022-09-30T09:57:22;39.71;29.41
64650;HTU21D;51061;45.258;38.112;2022-09-30T09:59:54;39.39;30.12
64650;HTU21D;51061;45.258;38.112;2022-09-30T10:02:20;39.32;30.57
64650;HTU21D;51061;45.258;38.112;2022-09-30T10:04:46;39.92;29.64
64650;HTU21D;51061;45.258;38.112;2022-09-30T10:07:18;40.13;29.51
64650;HTU21D;51061;45.258;38.112;2022-09-30T10:09:44;39.77;29.31
64650;HTU21D;51061;45.258;38.112;2022-09-30T10:14:37;41.10;28.01
64650;HTU21D;51061;45.258;38.112;2022-09-30T10:17:29;40.56;28.13
64650;HTU21D;51061;45.258;38.112;2022-09-30T10:19:59;40.67;28.74
64650;HTU21D;51061;45.258;38.112;2022-09-30T10:22:27;41.05;28.33
64650;HTU21D;51061;45.258;38.112;2022-09-30T10:25:08;41.54;28.10
64650;HTU21D;51061;45.258;38.112;2022-09-30T10:27:34;42.07;27.49
64650;HTU21D;51061;45.258;38.112;2022-09-30T10:30:00;42.55;27.31
64650;HTU21D;51061;45.258;38.112;2022-09-30T10:32:26;42.62;27.11
64650;HTU21D;51061;45.258;38.112;2022-09-30T10:34:57;42.43;27.44
64650;HTU21D;51061;45.258;38.112;2022-09-30T10:37:27;42.49;27.11
64650;HTU21D;51061;45.258;38.112;2022-09-30T10:39:57;42.25;27.18
64650;HTU21D;51061;45.258;38.112;2022-09-30T10:42:31;42.58;27.26
64650;HTU21D;51061;45.258;38.112;2022-09-30T10:45:03;43.25;26.49
64650;HTU21D;51061;45.258;38.112;2022-09-30T10:47:30;43.57;25.91
64650;HTU21D;51061;45.258;38.112;2022-09-30T10:49:59;43.87;23.50
64650;HTU21D;51061;45.258;38.112;2022-09-30T10:52:26;43.25;25.21
64650;HTU21D;51061;45.258;38.112;2022-09-30T10:54:54;42.55;24.62
64650;HTU21D;51061;45.258;38.112;2022-09-30T10:57:24;41.58;25.91
64650;HTU21D;51061;45.258;38.112;2022-09-30T10:59:56;41.58;26.00
64650;HTU21D;51061;45.258;38.112;2022-09-30T11:05:09;41.44;25.95
64650;HTU21D;51061;45.258;38.112;2022-09-30T11:08:00;42.25;25.89
64650;HTU21D;51061;45.258;38.112;2022-09-30T11:12:54;44.45;23.37
64650;HTU21D;51061;45.258;38.112;2022-09-30T11:15:28;45.10;21.56
64650;HTU21D;51061;45.258;38.112;2022-09-30T11:17:57;44.09;21.43
64650;HTU21D;51061;45.258;38.112;2022-09-30T11:20:28;42.60;23.84
64650;HTU21D;51061;45.258;38.112;2022-09-30T11:33:34;43.41;23.07
64650;HTU21D;51061;45.258;38.112;2022-09-30T11:41:10;44.10;22.72
64650;HTU21D;51061;45.258;38.112;2022-09-30T11:43:45;44.12;22.74
64650;HTU21D;51061;45.258;38.112;2022-09-30T11:46:16;44.52;22.56
64650;HTU21D;51061;45.258;38.112;2022-09-30T11:59:21;41.49;25.92
64650;HTU21D;51061;45.258;38.112;2022-09-30T12:01:49;40.36;26.93
64650;HTU21D;51061;45.258;38.112;2022-09-30T12:09:26;38.12;29.20
64650;HTU21D;51061;45.258;38.112;2022-09-30T12:11:55;37.58;29.68
64650;HTU21D;51061;45.258;38.112;2022-09-30T12:14:33;37.02;30.27
64650;HTU21D;51061;45.258;38.112;2022-09-30T12:16:59;36.47;30.36
64650;HTU21D;51061;45.258;38.112;2022-09-30T12:19:28;35.98;30.87
64650;HTU21D;51061;45.258;38.112;2022-09-30T12:21:57;35.58;31.34
64650;HTU21D;51061;45.258;38.112;2022-09-30T12:24:28;35.22;31.56
64650;HTU21D;51061;45.258;38.112;2022-09-30T12:26:54;34.83;31.85
64650;HTU21D;51061;45.258;38.112;2022-09-30T12:29:24;34.59;32.08
64650;HTU21D;51061;45.258;38.112;2022-09-30T12:37:15;33.87;32.79
64650;HTU21D;51061;45.258;38.112;2022-09-30T12:42:36;33.35;33.42
64650;HTU21D;51061;45.258;38.112;2022-09-30T12:47:45;32.35;34.27
64650;HTU21D;51061;45.258;38.112;2022-09-30T12:50:13;31.99;34.68
64650;HTU21D;51061;45.258;38.112;2022-09-30T12:52:41;31.73;35.04
64650;HTU21D;51061;45.258;38.112;2022-09-30T12:55:19;31.72;34.78
64650;HTU21D;51061;45.258;38.112;2022-09-30T12:57:46;31.73;34.77
64650;HTU21D;51061;45.258;38.112;2022-09-30T13:00:14;31.67;34.97
64650;HTU21D;51061;45.258;38.112;2022-09-30T13:02:41;31.63;35.13
64650;HTU21D;51061;45.258;38.112;2022-09-30T13:10:30;31.60;35.34
64650;HTU21D;51061;45.258;38.112;2022-09-30T13:15:41;31.01;35.82
64650;HTU21D;51061;45.258;38.112;2022-09-30T13:20:54;30.37;36.27
64650;HTU21D;51061;45.258;38.112;2022-09-30T13:31:19;30.05;36.88
64650;HTU21D;51061;45.258;38.112;2022-09-30T13:33:46;30.10;36.84
64650;HTU21D;51061;45.258;38.112;2022-09-30T13:39:06;30.16;36.85
64650;HTU21D;51061;45.258;38.112;2022-09-30T13:41:33;30.16;36.94
64650;HTU21D;51061;45.258;38.112;2022-09-30T13:44:08;30.11;37.01
64650;HTU21D;51061;45.258;38.112;2022-09-30T13:46:39;30.07;37.11
64650;HTU21D;51061;45.258;38.112;2022-09-30T13:49:13;30.03;37.25
64650;HTU21D;51061;45.258;38.112;2022-09-30T13:51:41;29.98;37.36
64650;HTU21D;51061;45.258;38.112;2022-09-30T13:54:09;29.95;37.47
64650;HTU21D;51061;45.258;38.112;2022-09-30T13:56:37;29.90;37.57
64650;HTU21D;51061;45.258;38.112;2022-09-30T14:04:17;29.70;37.86
64650;HTU21D;51061;45.258;38.112;2022-09-30T14:06:59;29.63;37.94
64650;HTU21D;51061;45.258;38.112;2022-09-30T14:09:31;29.57;38.01
64650;HTU21D;51061;45.258;38.112;2022-09-30T14:14:55;29.42;38.24
64650;HTU21D;51061;45.258;38.112;2022-09-30T14:22:25;29.24;38.54
64650;HTU21D;51061;45.258;38.112;2022-09-30T14:24:52;29.17;38.61
64650;HTU21D;51061;45.258;38.112;2022-09-30T14:30:00;29.13;38.75
64650;HTU21D;51061;45.258;38.112;2022-09-30T14:32:29;29.08;38.80
64650;HTU21D;51061;45.258;38.112;2022-09-30T14:34:55;29.01;38.90
64650;HTU21D;51061;45.258;38.112;2022-09-30T14:39:51;28.83;39.17
64650;HTU21D;51061;45.258;38.112;2022-09-30T14:42:38;28.74;39.27
64650;HTU21D;51061;45.258;38.112;2022-09-30T14:45:03;28.61;39.43
64650;HTU21D;51061;45.258;38.112;2022-09-30T14:47:31;28.50;39.56
64650;HTU21D;51061;45.258;38.112;2022-09-30T14:49:58;28.40;39.75
64650;HTU21D;51061;45.258;38.112;2022-09-30T14:52:32;28.28;39.92
64650;HTU21D;51061;45.258;38.112;2022-09-30T14:54:59;28.18;40.05
64650;HTU21D;51061;45.258;38.112;2022-09-30T14:57:25;28.06;40.21
64650;HTU21D;51061;45.258;38.112;2022-09-30T15:00:14;27.98;40.36
64650;HTU21D;51061;45.258;38.112;2022-09-30T15:02:42;27.86;40.54
64650;HTU21D;51061;45.258;38.112;2022-09-30T15:05:10;27.75;40.69
64650;HTU21D;51061;45.258;38.112;2022-09-30T15:07:38;27.65;40.81
64650;HTU21D;51061;45.258;38.112;2022-09-30T15:10:04;27.54;40.91
64650;HTU21D;51061;45.258;38.112;2022-09-30T15:12:32;27.41;41.08
64650;HTU21D;51061;45.258;38.112;2022-09-30T15:15:20;27.32;41.23
64650;HTU21D;51061;45.258;38.112;2022-09-30T15:17:47;27.21;41.33
64650;HTU21D;51061;45.258;38.112;2022-09-30T15:20:31;27.11;41.44
64650;HTU21D;51061;45.258;38.112;2022-09-30T15:22:59;27.00;41.59
64650;HTU21D;51061;45.258;38.112;2022-09-30T15:25:28;26.92;41.68
64650;HTU21D;51061;45.258;38.112;2022-09-30T15:27:54;26.82;41.80
64650;HTU21D;51061;45.258;38.112;2022-09-30T15:30:22;26.73;41.96
64650;HTU21D;51061;45.258;38.112;2022-09-30T15:32:54;26.65;42.09
64650;HTU21D;51061;45.258;38.112;2022-09-30T15:35:21;26.57;42.20
64650;HTU21D;51061;45.258;38.112;2022-09-30T15:37:48;26.50;42.33
64650;HTU21D;51061;45.258;38.112;2022-09-30T15:40:16;26.40;42.44
64650;HTU21D;51061;45.258;38.112;2022-09-30T15:43:02;26.32;42.65
64650;HTU21D;51061;45.258;38.112;2022-09-30T15:50:47;26.08;42.97
64650;HTU21D;51061;45.258;38.112;2022-09-30T15:53:17;26.02;43.08
64650;HTU21D;51061;45.258;38.112;2022-09-30T15:55:43;25.93;43.17
64650;HTU21D;51061;45.258;38.112;2022-09-30T16:00:53;25.78;43.47
64650;HTU21D;51061;45.258;38.112;2022-09-30T16:03:33;25.71;43.61
64650;HTU21D;51061;45.258;38.112;2022-09-30T16:06:10;25.63;43.71
64650;HTU21D;51061;45.258;38.112;2022-09-30T16:08:43;25.56;43.84
64650;HTU21D;51061;45.258;38.112;2022-09-30T16:11:16;25.49;43.94
64650;HTU21D;51061;45.258;38.112;2022-09-30T16:13:43;25.45;44.06
64650;HTU21D;51061;45.258;38.112;2022-09-30T16:16:19;25.39;44.13
64650;HTU21D;51061;45.258;38.112;2022-09-30T16:18:46;25.33;44.29
64650;HTU21D;51061;45.258;38.112;2022-09-30T16:21:46;25.27;44.42
64650;HTU21D;51061;45.258;38.112;2022-09-30T16:26:53;25.16;44.55
64650;HTU21D;51061;45.258;38.112;2022-09-30T16:29:20;25.10;44.63
64650;HTU21D;51061;45.258;38.112;2022-09-30T16:31:47;25.05;44.69
64650;HTU21D;51061;45.258;38.112;2022-09-30T16:34:21;25.01;44.75
64650;HTU21D;51061;45.258;38.112;2022-09-30T16:36:47;24.92;44.88
64650;HTU21D;51061;45.258;38.112;2022-09-30T16:39:13;24.86;45.01
64650;HTU21D;51061;45.258;38.112;2022-09-30T16:41:39;24.80;45.09
64650;HTU21D;51061;45.258;38.112;2022-09-30T16:44:05;24.74;45.22
64650;HTU21D;51061;45.258;38.112;2022-09-30T16:46:31;24.68;45.35
64650;HTU21D;51061;45.258;38.112;2022-09-30T16:48:58;24.63;45.45
64650;HTU21D;51061;45.258;38.112;2022-09-30T16:51:23;24.56;45.68
64650;HTU21D;51061;45.258;38.112;2022-09-30T16:53:49;24.49;45.81
64650;HTU21D;51061;45.258;38.112;2022-09-30T16:56:16;24.43;45.92
64650;HTU21D;51061;45.258;38.112;2022-09-30T16:58:43;24.36;46.02
64650;HTU21D;51061;45.258;38.112;2022-09-30T17:01:19;24.33;46.13
64650;HTU21D;51061;45.258;38.112;2022-09-30T17:03:46;24.27;46.25
64650;HTU21D;51061;45.258;38.112;2022-09-30T17:06:13;24.21;46.38
64650;HTU21D;51061;45.258;38.112;2022-09-30T17:08:39;24.16;46.44
64650;HTU21D;51061;45.258;38.112;2022-09-30T17:11:05;24.10;46.55
64650;HTU21D;51061;45.258;38.112;2022-09-30T17:13:31;24.01;46.71
64650;HTU21D;51061;45.258;38.112;2022-09-30T17:15:58;23.96;46.83
64650;HTU21D;51061;45.258;38.112;2022-09-30T17:18:26;23.90;46.93
64650;HTU21D;51061;45.258;38.112;2022-09-30T17:20:52;23.86;47.08
64650;HTU21D;51061;45.258;38.112;2022-09-30T17:23:18;0.00;47.22
64650;HTU21D;51061;45.258;38.112;2022-09-30T17:25:45;23.77;47.42
64650;HTU21D;51061;45.258;38.112;2022-09-30T17:28:11;23.68;47.63
64650;HTU21D;51061;45.258;38.112;2022-09-30T17:30:38;23.54;48.03
64650;HTU21D;51061;45.258;38.112;2022-09-30T17:33:06;23.40;48.34
64650;HTU21D;51061;45.258;38.112;2022-09-30T17:35:37;23.31;48.50
64650;HTU21D;51061;45.258;38.112;2022-09-30T17:38:06;23.26;48.58
64650;HTU21D;51061;45.258;38.112;2022-09-30T17:40:33;23.16;48.76
64650;HTU21D;51061;45.258;38.112;2022-09-30T17:43:17;23.11;48.89
64650;HTU21D;51061;45.258;38.112;2022-09-30T17:45:43;23.01;49.15
64650;HTU21D;51061;45.258;38.112;2022-09-30T17:48:11;22.88;49.52
64650;HTU21D;51061;45.258;38.112;2022-09-30T17:50:37;22.81;49.79
64650;HTU21D;51061;45.258;38.112;2022-09-30T17:53:13;22.73;49.85
64650;HTU21D;51061;45.258;38.112;2022-09-30T17:55:41;22.66;49.94
64650;HTU21D;51061;45.258;38.112;2022-09-30T17:58:08;22.60;50.03
64650;HTU21D;51061;45.258;38.112;2022-09-30T18:00:34;22.58;50.04
64650;HTU21D;51061;45.258;38.112;2022-09-30T18:03:01;22.53;50.13
64650;HTU21D;51061;45.258;38.112;2022-09-30T18:05:27;22.50;50.17
64650;HTU21D;51061;45.258;38.112;2022-09-30T18:07:53;22.43;50.29
64650;HTU21D;51061;45.258;38.112;2022-09-30T18:10:19;22.41;50.33
64650;HTU21D;51061;45.258;38.112;2022-09-30T18:12:45;22.43;50.22
64650;HTU21D;51061;45.258;38.112;2022-09-30T18:15:14;22.46;50.14
64650;HTU21D;51061;45.258;38.112;2022-09-30T18:17:40;22.49;50.14
64650;HTU21D;51061;45.258;38.112;2022-09-30T18:20:06;22.51;50.17
64650;HTU21D;51061;45.258;38.112;2022-09-30T18:22:32;22.50;50.18
64650;HTU21D;51061;45.258;38.112;2022-09-30T18:24:58;22.50;50.11